createdAt,value
2022-10-13T00:02:18.870Z,96.41
2022-10-13T00:05:25.876Z,96.52
2022-10-13T00:08:32.675Z,96.69
2022-10-13T00:11:39.284Z,96.84
2022-10-13T00:14:45.979Z,96.97
2022-10-13T00:17:52.403Z,97.04
2022-10-13T00:20:59.311Z,97.05
2022-10-13T00:24:06.431Z,97.17
2022-10-13T00:27:13.175Z,97.21
2022-10-13T00:30:19.772Z,97.48
2022-10-13T00:33:26.912Z,97.71
2022-10-13T00:36:34.017Z,97.93
2022-10-13T00:39:41.235Z,97.91
2022-10-13T00:42:47.945Z,97.96
2022-10-13T00:45:55.509Z,98.08
2022-10-13T00:49:07.034Z,98.14
2022-10-13T00:52:15.477Z,98.26
2022-10-13T00:55:27.227Z,98.28
2022-10-13T00:58:34.041Z,98.20
2022-10-13T01:01:41.166Z,98.17
2022-10-13T01:04:49.909Z,98.12
2022-10-13T01:07:58.073Z,98.28
2022-10-13T01:11:21.023Z,98.34
2022-10-13T01:14:36.051Z,98.44
2022-10-13T01:17:51.698Z,98.72
2022-10-13T01:21:13.092Z,98.78
2022-10-13T01:24:36.172Z,98.54
2022-10-13T01:27:59.421Z,98.51
2022-10-13T01:31:12.284Z,98.26
2022-10-13T01:34:23.684Z,98.66
2022-10-13T01:37:34.267Z,98.70
2022-10-13T01:40:45.356Z,98.89
2022-10-13T01:43:58.219Z,99.15
2022-10-13T01:47:06.035Z,99.29
2022-10-13T01:50:14.563Z,99.47
2022-10-13T01:53:22.743Z,99.65
2022-10-13T01:56:32.999Z,99.87
2022-10-13T01:59:39.628Z,99.93
2022-10-13T02:02:55.288Z,99.99
2022-10-13T02:06:11.178Z,100.00
2022-10-13T02:09:28.246Z,100.00
2022-10-13T02:12:40.457Z,100.00
2022-10-13T02:15:51.036Z,100.00
2022-10-13T02:18:59.366Z,100.00
2022-10-13T02:22:07.688Z,100.00
2022-10-13T02:25:14.744Z,100.00
2022-10-13T02:28:21.952Z,100.00
2022-10-13T02:31:28.697Z,100.00
2022-10-13T02:34:35.564Z,100.00
2022-10-13T02:37:42.132Z,100.00
2022-10-13T02:40:48.726Z,100.00
2022-10-13T02:43:55.291Z,100.00
2022-10-13T02:47:04.253Z,100.00
2022-10-13T02:50:11.796Z,100.00
2022-10-13T02:53:18.472Z,100.00
2022-10-13T02:56:25.144Z,99.99
2022-10-13T02:59:31.641Z,100.00
2022-10-13T03:02:38.302Z,100.00
2022-10-13T03:05:45.121Z,100.00
2022-10-13T03:08:51.784Z,100.00
2022-10-13T03:11:58.744Z,100.00
2022-10-13T03:15:06.038Z,100.00
2022-10-13T03:18:13.291Z,100.00
2022-10-13T03:21:20.313Z,100.00
2022-10-13T03:24:27.086Z,100.00
2022-10-13T03:27:33.644Z,100.00
2022-10-13T03:30:40.415Z,100.00
2022-10-13T03:33:47.384Z,100.00
2022-10-13T03:36:53.971Z,100.00
2022-10-13T03:40:00.717Z,100.00
2022-10-13T03:43:07.438Z,100.00
2022-10-13T03:46:16.375Z,100.00
2022-10-13T03:49:25.172Z,100.00
2022-10-13T03:52:34.402Z,100.00
2022-10-13T03:55:41.175Z,100.00
2022-10-13T03:58:47.857Z,100.00
2022-10-13T04:01:54.333Z,100.00
2022-10-13T04:05:00.969Z,100.00
2022-10-13T04:08:07.907Z,100.00
2022-10-13T04:11:16.718Z,100.00
2022-10-13T04:14:22.600Z,100.00
2022-10-13T04:17:29.332Z,100.00
2022-10-13T04:20:40.151Z,100.00
2022-10-13T04:23:46.901Z,100.00
2022-10-13T04:26:53.551Z,100.00
2022-10-13T04:30:00.276Z,100.00
2022-10-13T04:33:07.340Z,100.00
2022-10-13T04:36:15.916Z,100.00
2022-10-13T04:39:22.962Z,100.00
2022-10-13T04:42:29.883Z,100.00
2022-10-13T04:45:36.575Z,100.00
2022-10-13T04:48:43.594Z,100.00
2022-10-13T04:51:50.227Z,100.00
2022-10-13T04:54:56.775Z,100.00
2022-10-13T04:58:03.376Z,100.00
2022-10-13T05:01:17.647Z,100.00
2022-10-13T05:04:27.978Z,100.00
2022-10-13T05:07:34.779Z,100.00
2022-10-13T05:10:41.388Z,100.00
2022-10-13T05:13:48.027Z,100.00
2022-10-13T05:16:55.988Z,100.00
2022-10-13T05:20:02.869Z,100.00
2022-10-13T05:23:09.601Z,100.00
2022-10-13T05:26:18.275Z,100.00
2022-10-13T05:29:24.909Z,100.00
2022-10-13T05:32:31.612Z,100.00
2022-10-13T05:35:38.212Z,100.00
2022-10-13T05:38:45.369Z,100.00
2022-10-13T05:41:52.028Z,100.00
2022-10-13T05:45:01.619Z,100.00
2022-10-13T05:48:09.031Z,100.00
2022-10-13T05:51:18.733Z,100.00
2022-10-13T05:54:25.912Z,100.00
2022-10-13T05:57:34.450Z,100.00
2022-10-13T06:00:43.496Z,100.00
2022-10-13T06:03:54.145Z,100.00
2022-10-13T06:07:01.000Z,100.00
2022-10-13T06:10:09.949Z,100.00
2022-10-13T06:13:16.677Z,100.00
2022-10-13T06:16:23.311Z,100.00
2022-10-13T06:19:30.173Z,100.00
2022-10-13T06:22:38.406Z,100.00
2022-10-13T06:25:50.871Z,100.00
2022-10-13T06:28:59.671Z,100.00
2022-10-13T06:32:11.064Z,100.00
2022-10-13T06:35:18.052Z,100.00
2022-10-13T06:38:24.633Z,100.00
2022-10-13T06:41:32.428Z,100.00
2022-10-13T06:44:38.949Z,100.00
2022-10-13T06:47:45.843Z,100.00
2022-10-13T06:50:52.508Z,100.00
2022-10-13T06:53:59.654Z,100.00
2022-10-13T06:57:09.472Z,100.00
2022-10-13T07:00:16.765Z,100.00
2022-10-13T07:03:25.168Z,100.00
2022-10-13T07:06:31.828Z,100.00
2022-10-13T07:09:38.698Z,99.85
2022-10-13T07:12:45.255Z,99.69
2022-10-13T07:15:51.847Z,99.49
2022-10-13T07:18:58.482Z,99.00
2022-10-13T07:22:05.198Z,98.14
2022-10-13T07:25:12.377Z,97.42
2022-10-13T07:28:19.292Z,96.89
2022-10-13T07:31:27.744Z,96.20
2022-10-13T07:34:34.555Z,95.13
2022-10-13T07:37:41.479Z,94.54
2022-10-13T07:40:48.688Z,93.22
2022-10-13T07:43:58.157Z,92.51
2022-10-13T07:47:04.876Z,91.86
2022-10-13T07:50:12.285Z,90.91
2022-10-13T07:53:18.997Z,90.10
2022-10-13T07:56:25.656Z,89.37
2022-10-13T07:59:34.589Z,88.35
2022-10-13T08:02:41.170Z,87.44
2022-10-13T08:05:47.674Z,87.34
2022-10-13T08:08:55.536Z,86.72
2022-10-13T08:12:03.045Z,86.43
2022-10-13T08:15:11.586Z,85.74
2022-10-13T08:18:18.152Z,85.02
2022-10-13T08:21:57.500Z,84.49
2022-10-13T08:24:51.794Z,83.58
2022-10-13T08:28:00.558Z,83.12
2022-10-13T08:31:08.453Z,82.39
2022-10-13T08:34:15.346Z,81.40
2022-10-13T08:37:22.565Z,81.30
2022-10-13T08:40:29.719Z,80.81
2022-10-13T08:43:45.255Z,80.06
2022-10-13T08:47:08.126Z,79.54
2022-10-13T08:50:18.888Z,78.30
2022-10-13T08:53:31.901Z,76.61
2022-10-13T08:56:39.412Z,76.80
2022-10-13T08:59:46.041Z,76.49
2022-10-13T09:02:53.337Z,76.40
2022-10-13T09:06:12.754Z,76.39
2022-10-13T09:09:18.563Z,76.01
2022-10-13T09:12:26.687Z,75.48
2022-10-13T09:15:45.676Z,74.33
2022-10-13T09:18:53.696Z,74.09
2022-10-13T09:22:15.244Z,73.78
2022-10-13T09:25:23.338Z,72.59
2022-10-13T09:28:32.055Z,72.30
2022-10-13T09:31:39.466Z,71.34
2022-10-13T09:34:49.096Z,71.47
2022-10-13T09:38:06.625Z,71.12
2022-10-13T09:41:24.527Z,70.34
2022-10-13T09:44:33.102Z,70.15
2022-10-13T09:47:40.898Z,70.02
2022-10-13T09:50:53.212Z,69.10
2022-10-13T09:54:00.020Z,68.14
2022-10-13T09:57:12.772Z,67.72
2022-10-13T10:00:23.139Z,67.26
2022-10-13T10:03:34.573Z,66.55
2022-10-13T10:06:42.625Z,66.98
2022-10-13T10:09:52.537Z,66.70
2022-10-13T10:12:59.089Z,65.66
2022-10-13T10:16:13.474Z,65.27
2022-10-13T10:19:24.016Z,64.85
2022-10-13T10:22:41.693Z,64.30
2022-10-13T10:25:50.492Z,62.89
2022-10-13T10:29:20.089Z,62.61
2022-10-13T10:32:44.307Z,62.28
2022-10-13T10:35:57.424Z,61.79
2022-10-13T10:39:13.961Z,61.38
2022-10-13T10:42:48.415Z,61.19
2022-10-13T10:46:00.252Z,60.51
2022-10-13T10:49:19.954Z,59.63
2022-10-13T10:52:36.713Z,58.83
2022-10-13T10:55:53.706Z,58.72
2022-10-13T10:59:13.507Z,58.06
2022-10-13T11:02:38.860Z,57.69
2022-10-13T11:06:22.781Z,56.95
2022-10-13T11:10:03.011Z,56.57
2022-10-13T11:13:23.286Z,56.60
2022-10-13T11:16:33.907Z,55.64
2022-10-13T11:19:42.041Z,54.81
2022-10-13T11:23:26.679Z,54.35
2022-10-13T11:26:45.889Z,54.73
2022-10-13T11:30:00.234Z,54.58
2022-10-13T11:33:52.931Z,53.97
2022-10-13T11:37:01.809Z,52.56
2022-10-13T11:40:21.864Z,53.02
2022-10-13T11:43:45.215Z,53.05
2022-10-13T11:47:03.199Z,52.40
2022-10-13T11:50:22.239Z,51.68
2022-10-13T11:53:33.843Z,51.61
2022-10-13T11:56:49.163Z,51.82
2022-10-13T11:59:57.639Z,50.93
2022-10-13T12:03:23.095Z,50.67
2022-10-13T12:06:35.755Z,50.35
2022-10-13T12:09:52.845Z,50.24
2022-10-13T12:13:02.485Z,49.38
2022-10-13T12:16:09.949Z,49.23
2022-10-13T12:19:23.936Z,49.17
2022-10-13T12:22:31.178Z,48.90
2022-10-13T12:25:38.723Z,48.53
2022-10-13T12:28:55.954Z,48.04
2022-10-13T12:32:02.716Z,47.50
2022-10-13T12:35:21.295Z,46.44
2022-10-13T12:38:28.168Z,46.63
2022-10-13T12:41:36.990Z,46.94
2022-10-13T12:44:42.334Z,46.82
2022-10-13T12:47:53.873Z,47.51
2022-10-13T12:51:16.790Z,47.28
2022-10-13T12:54:26.792Z,47.39
2022-10-13T12:57:37.956Z,47.67
2022-10-13T13:00:44.755Z,46.92
2022-10-13T13:03:58.424Z,46.97
2022-10-13T13:07:07.841Z,47.39
2022-10-13T13:10:22.503Z,47.70
2022-10-13T13:13:30.262Z,47.67
2022-10-13T13:16:36.878Z,47.85
2022-10-13T13:19:45.757Z,48.33
2022-10-13T13:22:52.341Z,47.99
2022-10-13T13:26:08.386Z,47.97
2022-10-13T13:29:15.105Z,47.59
2022-10-13T13:32:23.016Z,47.74
2022-10-13T13:35:29.913Z,47.99
2022-10-13T13:38:37.513Z,48.31
2022-10-13T13:41:45.112Z,48.08
2022-10-13T13:44:51.796Z,48.07
2022-10-13T13:48:00.813Z,48.23
2022-10-13T13:51:09.134Z,48.10
2022-10-13T13:54:15.861Z,47.34
2022-10-13T13:57:22.943Z,47.38
2022-10-13T14:00:29.881Z,47.28
2022-10-13T14:03:36.619Z,47.77
2022-10-13T14:06:45.243Z,47.73
2022-10-13T14:09:55.493Z,46.74
2022-10-13T14:13:06.095Z,45.73
2022-10-13T14:16:17.191Z,46.11
2022-10-13T14:19:23.938Z,45.80
2022-10-13T14:22:30.657Z,45.92
2022-10-13T14:25:38.949Z,45.93
2022-10-13T14:28:45.915Z,46.30
2022-10-13T14:31:52.588Z,46.61
2022-10-13T14:34:59.264Z,46.97
2022-10-13T14:38:05.835Z,47.64
2022-10-13T14:41:15.216Z,47.84
2022-10-13T14:44:22.581Z,48.11
2022-10-13T14:47:29.053Z,49.12
2022-10-13T14:50:40.047Z,49.15
2022-10-13T14:53:47.548Z,48.79
2022-10-13T14:56:54.103Z,48.50
2022-10-13T15:00:02.048Z,48.65
2022-10-13T15:03:09.284Z,48.89
2022-10-13T15:06:21.417Z,49.13
2022-10-13T15:09:38.942Z,49.26
2022-10-13T15:12:55.933Z,50.10
2022-10-13T15:16:04.753Z,50.50
2022-10-13T15:19:11.433Z,51.04
2022-10-13T15:22:18.209Z,51.72
2022-10-13T15:25:24.940Z,52.38
2022-10-13T15:28:36.832Z,53.00
2022-10-13T15:31:43.526Z,53.63
2022-10-13T15:34:50.161Z,54.24
2022-10-13T15:37:56.712Z,55.02
2022-10-13T15:41:04.877Z,55.64
2022-10-13T15:44:11.439Z,56.37
2022-10-13T15:47:17.970Z,56.98
2022-10-13T15:50:24.551Z,57.63
2022-10-13T15:53:32.022Z,58.12
2022-10-13T15:56:38.776Z,58.83
2022-10-13T15:59:45.415Z,59.20
2022-10-13T16:02:53.340Z,59.70
2022-10-13T16:06:03.477Z,60.27
2022-10-13T16:09:10.072Z,60.85
2022-10-13T16:12:16.866Z,61.37
2022-10-13T16:15:26.122Z,61.98
2022-10-13T16:18:32.259Z,62.39
2022-10-13T16:21:38.946Z,62.98
2022-10-13T16:24:45.775Z,63.53
2022-10-13T16:27:52.740Z,64.11
2022-10-13T16:31:03.830Z,64.59
2022-10-13T16:34:13.207Z,65.10
2022-10-13T16:37:20.265Z,65.71
2022-10-13T16:40:27.327Z,66.29
2022-10-13T16:43:34.664Z,66.78
2022-10-13T16:46:43.031Z,67.27
2022-10-13T16:49:49.937Z,67.61
2022-10-13T16:52:56.862Z,67.99
2022-10-13T16:56:04.540Z,68.18
2022-10-13T16:59:12.196Z,68.43
2022-10-13T17:02:18.983Z,69.28
2022-10-13T17:05:26.445Z,69.22
2022-10-13T17:08:33.929Z,69.29
2022-10-13T17:11:43.005Z,69.65
2022-10-13T17:14:50.140Z,69.84
2022-10-13T17:17:57.156Z,70.21
2022-10-13T17:21:05.898Z,70.20
2022-10-13T17:24:12.579Z,70.51
2022-10-13T17:27:19.762Z,70.65
2022-10-13T17:30:26.794Z,70.80
2022-10-13T17:33:36.256Z,70.86
2022-10-13T17:36:41.456Z,71.04
2022-10-13T17:39:48.490Z,70.97
2022-10-13T17:42:55.519Z,71.13
2022-10-13T17:46:35.036Z,71.13
2022-10-13T17:49:39.283Z,71.20
2022-10-13T17:52:46.086Z,71.19
2022-10-13T17:55:54.778Z,71.27
2022-10-13T17:59:03.001Z,71.39
2022-10-13T18:02:09.888Z,71.65
2022-10-13T18:05:16.894Z,71.73
2022-10-13T18:08:23.615Z,71.82
2022-10-13T18:11:30.568Z,71.98
2022-10-13T18:14:37.281Z,72.33
2022-10-13T18:17:43.847Z,72.77
2022-10-13T18:20:50.420Z,73.05
2022-10-13T18:23:58.831Z,73.56
2022-10-13T18:27:06.173Z,73.90
2022-10-13T18:30:21.373Z,74.20
2022-10-13T18:33:29.434Z,74.55
2022-10-13T18:36:37.763Z,74.89
2022-10-13T18:39:49.873Z,75.49
2022-10-13T18:42:56.497Z,75.77
2022-10-13T18:46:03.360Z,76.00
2022-10-13T18:49:13.654Z,76.37
2022-10-13T18:52:22.209Z,76.79
2022-10-13T18:55:29.010Z,77.10
2022-10-13T18:58:36.493Z,77.32
2022-10-13T19:01:44.479Z,77.48
2022-10-13T19:04:51.269Z,77.39
2022-10-13T19:07:58.326Z,77.66
2022-10-13T19:11:13.445Z,77.56
2022-10-13T19:14:20.105Z,77.45
2022-10-13T19:17:26.756Z,77.56
2022-10-13T19:20:33.693Z,77.48
2022-10-13T19:23:44.627Z,77.72
2022-10-13T19:27:09.488Z,77.60
2022-10-13T19:30:17.163Z,77.56
2022-10-13T19:33:23.831Z,77.71
2022-10-13T19:36:33.111Z,77.85
2022-10-13T19:39:42.768Z,77.98
2022-10-13T19:42:49.476Z,78.36
2022-10-13T19:45:59.645Z,78.51
2022-10-13T19:49:06.919Z,78.69
2022-10-13T19:52:15.133Z,78.79
2022-10-13T19:55:21.975Z,79.03
2022-10-13T19:58:30.073Z,79.07
2022-10-13T20:01:40.306Z,79.24
2022-10-13T20:05:01.383Z,79.45
2022-10-13T20:08:09.425Z,79.42
2022-10-13T20:11:23.004Z,79.60
2022-10-13T20:14:30.771Z,80.10
2022-10-13T20:17:39.889Z,80.21
2022-10-13T20:20:46.464Z,80.32
2022-10-13T20:23:53.923Z,80.71
2022-10-13T20:27:00.489Z,80.90
2022-10-13T20:30:08.659Z,81.05
2022-10-13T20:33:15.292Z,81.38
2022-10-13T20:36:22.345Z,81.65
2022-10-13T20:39:29.283Z,81.95
2022-10-13T20:42:35.847Z,82.18
2022-10-13T20:45:42.521Z,82.36
2022-10-13T20:52:16.431Z,82.62
2022-10-13T20:55:25.380Z,82.93
2022-10-13T20:58:34.012Z,83.02
2022-10-13T21:01:42.524Z,83.20
2022-10-13T21:04:49.518Z,83.14
2022-10-13T21:07:57.600Z,83.39
2022-10-13T21:11:07.069Z,83.78
2022-10-13T21:14:12.313Z,83.90
2022-10-13T21:17:20.931Z,84.17
2022-10-13T21:20:28.173Z,84.46
2022-10-13T21:23:35.483Z,84.45
2022-10-13T21:26:42.981Z,84.57
2022-10-13T21:29:54.038Z,84.71
2022-10-13T21:33:00.990Z,84.88
2022-10-13T21:36:10.981Z,85.09
2022-10-13T21:39:18.781Z,85.43
2022-10-13T21:42:25.858Z,85.84
2022-10-13T21:45:32.557Z,86.05
2022-10-13T21:48:39.742Z,86.14
2022-10-13T21:51:46.453Z,86.32
2022-10-13T21:54:53.836Z,86.77
2022-10-13T21:58:05.126Z,86.93
2022-10-13T22:01:13.257Z,87.20
2022-10-13T22:04:20.102Z,87.31
2022-10-13T22:07:26.724Z,87.55
2022-10-13T22:10:33.361Z,87.77
2022-10-13T22:13:42.339Z,88.10
2022-10-13T22:16:50.706Z,87.97
2022-10-13T22:19:57.704Z,88.25
2022-10-13T22:23:04.405Z,88.45
2022-10-13T22:26:11.583Z,88.49
2022-10-13T22:29:21.499Z,88.70
2022-10-13T22:32:28.438Z,88.84
2022-10-13T22:35:37.543Z,88.87
2022-10-13T22:38:44.565Z,89.11
2022-10-13T22:41:53.364Z,89.25
2022-10-13T22:45:00.192Z,89.43
2022-10-13T22:48:07.990Z,89.41
2022-10-13T22:51:18.559Z,89.48
2022-10-13T22:54:25.170Z,89.41
2022-10-13T22:57:32.596Z,89.26
2022-10-13T23:00:39.772Z,89.34
2022-10-13T23:03:49.893Z,89.57
2022-10-13T23:06:56.664Z,89.71
2022-10-13T23:10:03.189Z,89.86
2022-10-13T23:13:09.938Z,89.83
2022-10-13T23:16:18.996Z,90.07
2022-10-13T23:19:26.037Z,90.10
2022-10-13T23:22:32.858Z,90.16
2022-10-13T23:25:42.282Z,90.42
2022-10-13T23:28:49.103Z,90.40
2022-10-13T23:31:55.887Z,90.78
2022-10-13T23:35:02.410Z,91.07
2022-10-13T23:38:13.669Z,91.23
2022-10-13T23:41:20.221Z,91.48
2022-10-13T23:44:27.080Z,91.67
2022-10-13T23:47:35.190Z,91.77
2022-10-13T23:50:41.817Z,91.98
2022-10-13T23:53:48.637Z,92.41
2022-10-13T23:56:57.084Z,92.47
